Meyersville, Texas
Current Conditions -  °F | °C
As of 5:51 PM on Saturday 22 Nov 2014 (Local Time) from KVCT Reporting Station
Overcast Overcast  
Wind Chill: 71°   Ceiling: 2300
Heat Index: 71°   Visibility: 8mi
Dew Point: 68°   Wind: 10mph
Humidity: 90%   Direction: 150°SSE
Pressure: 29.77"   Gusts: NA
Location:  28.93°N, 97.31°W
Report Text: KVCT 222351Z 15009KT 8SM FEW010 SCT019 OVC023 22/20 A2977 RMK AO2 SLP078 60002 T02170200 10239 20211 58013
Loading
Personal Weather Stations






























Interactive Weather Map New forecast layout! Learn more

10-Day Weather Forecast

Advertisements
Track Severe Weather on mobile